Time;durP1;ratioP1;P1;durP2;ratioP2;P2;SDS_P1;SDS_P2;PMS_P1;PMS_P2;Temp;Humidity;BMP_temperature;BMP_pressure;BME280_temperature;BME280_humidity;BME280_pressure;Samples;Min_cycle;Max_cycle;Signal;HPM_P1;HPM_P2
2021/01/22 00:02:41;;;;;;;38.45;22.40;;;;;;;2.26;77.45;101007.41;1709483;84;21293;-59
2021/01/22 00:05:48;;;;;;;36.98;21.57;;;;;;;2.26;77.66;101008.28;1709588;84;21289;-65
2021/01/22 00:08:54;;;;;;;36.65;19.95;;;;;;;2.27;77.79;101003.73;1709323;84;21229;-59
2021/01/22 00:11:59;;;;;;;38.02;20.52;;;;;;;2.28;78.09;101006.35;1709472;84;21257;-59
2021/01/22 00:15:04;;;;;;;35.85;20.62;;;;;;;2.29;78.09;101002.66;1709352;84;21376;-59
2021/01/22 00:18:09;;;;;;;38.95;22.60;;;;;;;2.31;78.34;100998.03;1709279;84;21301;-59
2021/01/22 00:21:16;;;;;;;42.20;21.75;;;;;;;2.38;78.60;100999.30;1709617;84;21241;-59
2021/01/22 00:24:22;;;;;;;36.10;20.08;;;;;;;2.49;78.77;100985.05;1709474;84;21269;-60
2021/01/22 00:27:29;;;;;;;42.33;22.07;;;;;;;2.62;78.74;100988.09;1709543;84;21253;-59
2021/01/22 00:30:35;;;;;;;41.40;22.77;;;;;;;2.74;78.63;100985.00;1709277;84;21353;-60
2021/01/22 00:33:41;;;;;;;41.65;22.45;;;;;;;2.73;78.33;100982.77;1709309;84;21388;-60
2021/01/22 00:36:49;;;;;;;45.50;22.98;;;;;;;2.72;78.43;100979.70;1709570;84;21245;-59
2021/01/22 00:39:53;;;;;;;38.92;21.12;;;;;;;2.78;78.54;100970.27;1709462;84;21749;-58
2021/01/22 00:42:58;;;;;;;38.30;21.02;;;;;;;2.82;78.37;100971.78;1709118;83;21751;-59
2021/01/22 00:46:04;;;;;;;37.28;19.90;;;;;;;2.81;78.40;100968.21;1709015;84;21481;-60
2021/01/22 00:49:10;;;;;;;39.20;21.48;;;;;;;2.78;78.38;100970.27;1708168;83;21249;-60
2021/01/22 00:52:17;;;;;;;41.73;21.87;;;;;;;2.81;78.47;100968.69;1708234;84;21257;-59
2021/01/22 00:55:24;;;;;;;44.70;23.70;;;;;;;2.85;78.50;100956.69;1708340;84;21345;-60
2021/01/22 00:58:48;;;;;;;39.98;21.85;;;;;;;2.90;78.44;100955.87;1708421;84;21229;-59
2021/01/22 01:01:56;;;;;;;35.80;20.82;;;;;;;2.93;78.26;100955.64;1708604;84;21313;-58
2021/01/22 01:05:02;;;;;;;36.25;20.85;;;;;;;2.95;78.31;100959.06;1709074;83;21206;-60
2021/01/22 01:08:07;;;;;;;40.63;22.25;;;;;;;2.93;78.26;100957.83;1709009;84;21285;-58
2021/01/22 01:11:19;;;;;;;;;;;;;;;2.99;78.33;100970.05;1724939;82;21392;-59
2021/01/22 01:14:37;;;;;;;33.75;19.73;;;;;;;3.05;78.23;100961.47;1738300;82;20224;-58
2021/01/22 01:17:45;;;;;;;37.30;21.17;;;;;;;3.09;78.10;100965.70;1738551;82;21258;-59
2021/01/22 01:20:50;;;;;;;39.03;21.42;;;;;;;3.13;77.97;100967.66;1687997;84;21324;-58
2021/01/22 01:23:57;;;;;;;35.30;20.40;;;;;;;3.14;77.94;100963.48;1738447;82;21237;-58
2021/01/22 01:27:05;;;;;;;40.08;21.65;;;;;;;3.19;77.91;100962.66;1738461;82;21293;-59
2021/01/22 01:30:14;;;;;;;33.58;18.73;;;;;;;3.25;77.69;100966.24;1738465;82;21762;-57
2021/01/22 01:33:19;;;;;;;37.60;20.77;;;;;;;3.26;77.47;100959.88;1738565;82;21214;-60
2021/01/22 01:36:27;;;;;;;31.50;18.73;;;;;;;3.21;77.30;100958.48;1738267;82;21483;-58
2021/01/22 01:39:32;;;;;;;40.10;21.65;;;;;;;3.18;77.24;100958.71;1738795;82;21424;-59
2021/01/22 01:42:43;;;;;;;37.15;21.02;;;;;;;3.15;77.30;100951.70;1738257;82;21415;-58
2021/01/22 01:45:49;;;;;;;34.60;19.20;;;;;;;3.14;77.21;100944.55;1738379;82;21230;-58
2021/01/22 01:48:55;;;;;;;38.70;20.32;;;;;;;3.13;77.22;100935.20;1735614;82;21214;-57
2021/01/22 01:52:01;;;;;;;35.13;19.77;;;;;;;3.09;77.24;100935.94;1716306;83;21389;-58
2021/01/22 01:55:08;;;;;;;36.00;20.37;;;;;;;3.08;77.19;100920.67;1716176;83;21378;-57
2021/01/22 06:36:26;;;;;;;21.35;13.62;;;;;;;4.90;76.47;100817.85;1700770;80;21209;-56
2021/01/22 06:39:32;;;;;;;25.77;15.85;;;;;;;4.89;76.38;100808.00;1701083;84;21220;-57
2021/01/22 06:42:46;;;;;;;27.37;15.93;;;;;;;4.86;76.43;100812.81;1695563;84;21208;-58
2021/01/22 06:45:52;;;;;;;23.50;15.13;;;;;;;4.88;76.46;100810.84;1708931;84;21355;-57
2021/01/22 06:49:02;;;;;;;35.65;23.60;;;;;;;4.90;76.31;100814.30;1705793;84;21230;-58
2021/01/22 06:52:20;;;;;;;20.77;14.05;;;;;;;4.91;76.28;100820.08;1709969;83;21820;-57
2021/01/22 06:55:27;;;;;;;21.30;15.35;;;;;;;4.94;76.20;100819.33;1710497;83;21314;-55
2021/01/22 06:58:38;;;;;;;23.25;15.15;;;;;;;5.00;76.08;100821.52;1709237;84;21197;-56
2021/01/22 07:01:43;;;;;;;22.65;15.10;;;;;;;5.03;75.89;100814.95;1691988;84;21274;-56
2021/01/22 07:04:51;;;;;;;20.37;13.43;;;;;;;5.01;75.69;100816.97;1648484;87;21395;-56
2021/01/22 07:07:57;;;;;;;16.02;10.68;;;;;;;5.01;75.63;100826.45;1682268;84;21725;-55
2021/01/22 07:11:09;;;;;;;24.20;16.27;;;;;;;5.01;75.39;100823.23;1689054;84;21360;-56
2021/01/22 07:14:17;;;;;;;22.85;13.35;;;;;;;4.97;75.33;100821.78;1682025;85;21323;-55
2021/01/22 07:17:36;;;;;;;16.93;12.88;;;;;;;5.01;75.37;100821.03;1681623;85;21260;-55
2021/01/22 07:20:40;;;;;;;19.10;12.10;;;;;;;5.05;75.21;100826.55;1708083;84;21836;-54
2021/01/22 07:23:45;;;;;;;22.05;13.58;;;;;;;5.07;75.15;100816.44;1709477;84;21212;-55
2021/01/22 07:26:56;;;;;;;29.90;16.52;;;;;;;5.12;75.00;100819.63;1684584;84;21351;-54
2021/01/22 07:30:19;;;;;;;17.90;12.10;;;;;;;5.19;74.84;100815.38;1682297;85;21370;-54
2021/01/22 07:33:43;;;;;;;19.85;12.23;;;;;;;5.25;74.51;100814.88;1686151;84;21950;-59
2021/01/22 07:36:57;;;;;;;28.90;19.35;;;;;;;5.25;74.26;100806.73;1648897;82;21264;-56
2021/01/22 07:40:03;;;;;;;18.25;12.85;;;;;;;5.27;74.06;100813.74;1617517;88;21256;-56
2021/01/22 07:43:09;;;;;;;16.82;11.68;;;;;;;5.28;73.82;100806.47;1676458;85;21217;-57
2021/01/22 07:46:18;;;;;;;34.50;25.35;;;;;;;5.27;73.76;100806.95;1658707;85;21315;-56
2021/01/22 07:49:23;;;;;;;16.32;12.50;;;;;;;5.32;73.71;100807.42;1676529;85;21197;-57
2021/01/22 07:52:28;;;;;;;16.37;11.95;;;;;;;5.43;73.65;100805.13;1677703;84;21201;-56
2021/01/22 07:55:34;;;;;;;16.93;12.50;;;;;;;5.53;73.37;100801.99;1676209;84;21212;-57
2021/01/22 07:58:44;;;;;;;19.12;13.20;;;;;;;5.56;73.09;100801.72;1676495;85;21261;-56
2021/01/22 08:01:49;;;;;;;17.67;12.13;;;;;;;5.59;72.91;100807.75;1676335;85;21248;-56
2021/01/22 08:05:09;;;;;;;17.12;10.93;;;;;;;5.63;72.82;100798.81;1676944;85;21216;-55
2021/01/22 08:08:29;;;;;;;18.85;11.65;;;;;;;5.72;72.62;100798.03;1676172;85;21732;-56
2021/01/22 08:11:34;;;;;;;29.82;16.60;;;;;;;5.77;72.28;100795.77;1676363;85;21808;-56
2021/01/22 08:14:41;;;;;;;23.05;13.75;;;;;;;5.77;72.03;100795.77;1676525;85;21386;-57
2021/01/22 08:17:50;;;;;;;23.05;14.28;;;;;;;5.84;71.83;100802.40;1694563;84;21375;-56
2021/01/22 08:20:58;;;;;;;16.60;11.30;;;;;;;5.83;71.44;100804.77;1696511;84;21296;-56
2021/01/22 08:24:06;;;;;;;16.05;10.00;;;;;;;5.85;71.54;100791.92;1676993;85;21307;-56
2021/01/22 08:27:12;;;;;;;12.47;9.33;;;;;;;5.95;71.47;100792.80;1689961;84;21296;-56
2021/01/22 08:30:18;;;;;;;15.40;10.45;;;;;;;6.01;71.21;100793.60;1700292;83;21847;-55
2021/01/22 08:33:23;;;;;;;17.45;11.40;;;;;;;6.09;71.04;100789.70;1700659;84;21216;-55
2021/01/22 08:36:29;;;;;;;22.13;17.12;;;;;;;6.19;70.78;100789.73;1698151;84;21273;-57
2021/01/22 08:39:34;;;;;;;19.95;11.60;;;;;;;6.21;70.41;100783.67;1724283;78;21206;-55
2021/01/22 08:42:40;;;;;;;14.90;9.35;;;;;;;6.25;70.13;100781.89;1737774;81;21798;-54
2021/01/22 08:45:46;;;;;;;15.10;10.05;;;;;;;6.29;69.99;100785.20;1734605;81;21191;-55
2021/01/22 08:48:52;;;;;;;16.75;11.15;;;;;;;6.28;69.79;100777.53;1727293;81;21739;-56
2021/01/22 08:56:23;;;;;;;12.90;9.03;;;;;;;6.47;69.53;100772.67;1877214;76;22193;-51
2021/01/22 08:59:29;;;;;;;13.13;8.68;;;;;;;6.46;69.36;100774.52;1809846;77;21274;-51
2021/01/22 09:02:51;;;;;;;22.55;16.27;;;;;;;6.47;69.00;100774.86;1795228;79;21232;-51
2021/01/22 09:06:01;;;;;;;10.93;8.13;;;;;;;6.47;68.88;100772.14;1795425;79;21319;-51
2021/01/22 09:09:07;;;;;;;11.03;9.30;;;;;;;6.52;68.86;100767.15;1797722;78;21735;-51
2021/01/22 09:12:18;;;;;;;15.10;10.32;;;;;;;6.62;68.63;100769.88;1794855;79;22132;-52
2021/01/22 09:15:23;;;;;;;12.70;9.75;;;;;;;6.63;68.28;100767.02;1804017;79;21304;-53
2021/01/22 09:18:32;;;;;;;16.12;11.30;;;;;;;6.59;68.14;100768.81;1804283;79;21212;-53
2021/01/22 09:21:37;;;;;;;14.20;10.68;;;;;;;6.54;68.20;100767.88;1804226;79;21911;-53
2021/01/22 09:24:46;;;;;;;55.30;28.80;;;;;;;6.60;68.33;100771.88;1804569;79;21209;-53
2021/01/22 09:27:56;;;;;;;63.52;32.55;;;;;;;6.64;68.12;100763.31;1803001;79;21370;-53
2021/01/22 09:31:03;;;;;;;38.17;25.15;;;;;;;6.64;68.15;100764.68;1789306;79;21849;-53
2021/01/22 09:34:10;;;;;;;16.50;12.58;;;;;;;6.69;68.10;100762.89;1779963;79;21347;-54
2021/01/22 09:37:17;;;;;;;17.32;12.47;;;;;;;6.72;68.00;100763.96;1802265;79;21736;-54
2021/01/22 09:40:26;;;;;;;18.12;13.80;;;;;;;6.79;67.94;100770.05;1747501;81;21371;-55
2021/01/22 09:43:32;;;;;;;17.95;12.85;;;;;;;6.80;67.71;100771.75;1735156;81;21606;-54
2021/01/22 10:06:32;;;;;;;13.80;10.80;;;;;;;6.38;67.90;100755.32;1791450;79;21676;-53
2021/01/22 10:09:41;;;;;;;15.23;10.98;;;;;;;6.29;68.37;100753.45;1789591;79;21358;-54
2021/01/22 10:12:50;;;;;;;13.78;10.63;;;;;;;6.29;68.62;100749.37;1803505;79;21385;-53
2021/01/22 10:15:57;;;;;;;14.23;11.05;;;;;;;6.32;68.63;100745.50;1764691;81;21327;-54
2021/01/22 10:19:03;;;;;;;15.53;11.73;;;;;;;6.23;68.87;100743.14;1732369;81;22005;-53
2021/01/22 10:22:10;;;;;;;13.10;9.78;;;;;;;6.23;69.05;100740.91;1760224;81;21765;-52
2021/01/22 10:25:19;;;;;;;13.58;10.15;;;;;;;6.24;69.12;100735.83;1776200;79;21323;-53
2021/01/22 10:28:26;;;;;;;13.83;10.72;;;;;;;6.18;69.25;100733.18;1771108;79;21373;-53
2021/01/22 10:31:33;;;;;;;13.40;10.68;;;;;;;6.17;69.49;100734.16;1773218;79;21865;-53
2021/01/22 10:34:40;;;;;;;15.55;10.93;;;;;;;6.23;69.50;100723.24;1771778;81;21358;-53
2021/01/22 10:37:46;;;;;;;13.68;10.72;;;;;;;6.17;69.51;100712.41;1738728;81;21753;-53
2021/01/22 10:40:51;;;;;;;12.60;10.45;;;;;;;6.15;69.66;100704.92;1735219;82;21705;-53
2021/01/22 10:43:57;;;;;;;13.00;10.65;;;;;;;6.17;69.70;100712.41;1743268;82;21375;-53
2021/01/22 10:47:03;;;;;;;14.35;10.48;;;;;;;6.19;69.77;100695.47;1751931;82;21347;-53
2021/01/22 10:50:16;;;;;;;17.45;12.35;;;;;;;6.23;69.71;100693.34;1751605;82;21729;-53
2021/01/22 10:53:21;;;;;;;19.52;12.25;;;;;;;6.25;69.77;100685.39;1752839;80;21269;-53
2021/01/22 10:56:28;;;;;;;15.98;10.75;;;;;;;6.34;69.73;100673.69;1706417;82;21919;-53
2021/01/22 10:59:34;;;;;;;13.68;10.08;;;;;;;6.40;69.44;100681.27;1719211;82;21698;-52
2021/01/22 11:02:38;;;;;;;17.05;11.65;;;;;;;6.41;69.41;100676.67;1787844;79;21402;-53
2021/01/22 11:05:44;;;;;;;16.07;11.25;;;;;;;6.47;69.35;100669.33;1771703;80;21642;-53
2021/01/22 11:08:49;;;;;;;17.07;11.93;;;;;;;6.51;69.23;100670.26;1764827;80;21797;-53
2021/01/22 11:11:59;;;;;;;17.92;12.33;;;;;;;6.51;69.07;100674.83;1759509;81;21205;-53
2021/01/22 11:15:04;;;;;;;17.35;11.90;;;;;;;6.47;68.99;100670.17;1759654;81;21414;-54
2021/01/22 11:18:11;;;;;;;14.38;9.90;;;;;;;6.40;68.97;100671.76;1759054;81;21552;-54
2021/01/22 11:21:19;;;;;;;15.18;11.97;;;;;;;6.35;69.19;100665.88;1786384;80;21197;-55
2021/01/22 11:24:24;;;;;;;19.30;12.75;;;;;;;6.27;69.25;100660.30;1791133;80;21276;-55
2021/01/22 11:27:31;;;;;;;18.32;12.13;;;;;;;6.21;69.43;100659.51;1737119;82;21229;-55
2021/01/22 11:30:36;;;;;;;17.50;12.13;;;;;;;6.19;69.63;100659.27;1734592;82;21220;-55
2021/01/22 11:33:44;;;;;;;26.68;16.60;;;;;;;6.16;69.75;100656.34;1734274;82;21729;-55
2021/01/22 11:36:52;;;;;;;26.20;14.87;;;;;;;6.17;69.87;100649.91;1725409;82;21217;-55
2021/01/22 11:39:59;;;;;;;21.90;14.45;;;;;;;6.20;69.87;100648.78;1747167;82;21342;-55
2021/01/22 11:43:04;;;;;;;18.45;13.80;;;;;;;6.24;69.87;100643.41;1793720;79;21263;-54
2021/01/22 11:46:09;;;;;;;19.60;13.53;;;;;;;6.28;69.82;100644.33;1793293;79;21689;-55
2021/01/22 11:49:16;;;;;;;19.60;13.20;;;;;;;6.30;69.75;100645.55;1793305;79;21732;-54
2021/01/22 11:52:22;;;;;;;15.70;12.23;;;;;;;6.30;69.79;100646.41;1791839;79;21792;-55
2021/01/22 11:55:27;;;;;;;16.77;12.63;;;;;;;6.37;69.74;100644.86;1790878;80;21831;-57
2021/01/22 11:58:35;;;;;;;16.52;12.55;;;;;;;6.42;69.60;100634.91;1705755;83;21715;-54
2021/01/22 12:01:40;;;;;;;15.88;12.37;;;;;;;6.48;69.61;100642.48;1728463;82;21350;-54
2021/01/22 12:04:47;;;;;;;17.07;12.18;;;;;;;6.54;69.50;100636.47;1734689;82;21418;-56
2021/01/22 12:07:53;;;;;;;18.00;12.18;;;;;;;6.57;69.34;100638.40;1790937;79;21339;-56
2021/01/22 12:11:04;;;;;;;32.88;24.02;;;;;;;6.58;69.28;100638.75;1755457;81;21280;-55
2021/01/22 12:14:11;;;;;;;51.63;32.58;;;;;;;6.58;69.25;100640.11;1746064;81;21920;-55
2021/01/22 12:17:19;;;;;;;61.33;38.70;;;;;;;6.60;69.20;100638.11;1744833;81;21213;-53
2021/01/22 12:20:28;;;;;;;61.40;36.15;;;;;;;6.61;69.17;100635.73;1747264;81;21236;-53
2021/01/22 12:23:34;;;;;;;35.33;21.50;;;;;;;6.60;69.09;100629.08;1751045;81;21216;-53
2021/01/22 12:26:45;;;;;;;36.23;20.85;;;;;;;6.58;69.06;100631.95;1749213;81;21181;-53
2021/01/22 12:29:52;;;;;;;36.83;19.12;;;;;;;6.52;69.16;100631.66;1743572;81;21793;-53
2021/01/22 12:33:02;;;;;;;31.80;18.80;;;;;;;6.49;69.17;100634.18;1747867;81;21236;-53
2021/01/22 12:36:14;;;;;;;36.38;20.52;;;;;;;6.47;69.32;100636.17;1731147;82;21939;-54
2021/01/22 12:39:21;;;;;;;25.40;15.80;;;;;;;6.51;69.41;100647.14;1735121;82;21244;-54
2021/01/22 12:42:29;;;;;;;20.40;14.60;;;;;;;6.51;69.39;100647.14;1734801;82;21752;-53
2021/01/22 12:45:43;;;;;;;21.68;14.07;;;;;;;6.51;69.44;100647.63;1734852;81;21221;-52
2021/01/22 12:48:53;;;;;;;18.92;12.13;;;;;;;6.46;69.44;100650.79;1735927;81;21252;-54
2021/01/22 12:52:03;;;;;;;17.30;12.15;;;;;;;6.44;69.56;100653.30;1743895;81;21201;-53
2021/01/22 12:55:10;;;;;;;16.15;11.33;;;;;;;6.41;69.67;100653.07;1746903;81;21173;-54
2021/01/22 12:58:16;;;;;;;15.70;12.05;;;;;;;6.43;69.73;100663.80;1743587;81;21200;-55
2021/01/22 13:01:20;;;;;;;25.62;14.00;;;;;;;6.42;69.86;100664.33;1736067;81;21268;-54
2021/01/22 13:04:26;;;;;;;24.47;13.72;;;;;;;6.44;69.86;100669.62;1733790;82;21213;-55
2021/01/22 13:07:34;;;;;;;20.40;13.32;;;;;;;6.44;69.88;100666.38;1733204;82;21313;-54
2021/01/22 13:10:41;;;;;;;20.65;13.32;;;;;;;6.44;69.87;100660.94;1733823;81;21732;-53
2021/01/22 13:13:52;;;;;;;18.85;11.50;;;;;;;6.41;69.85;100663.95;1734036;82;21223;-53
2021/01/22 13:17:00;;;;;;;18.95;12.07;;;;;;;6.37;69.89;100661.17;1724316;82;21776;-54
2021/01/22 13:20:13;;;;;;;19.07;13.15;;;;;;;6.33;69.97;100655.64;1765324;81;21437;-54
2021/01/22 13:23:21;;;;;;;16.23;12.47;;;;;;;6.30;70.12;100651.85;1755257;81;21232;-53
2021/01/22 13:26:30;;;;;;;27.75;19.17;;;;;;;6.30;70.12;100658.64;1765101;81;21197;-53
2021/01/22 13:29:36;;;;;;;20.95;14.68;;;;;;;6.28;70.12;100654.37;1761434;81;21192;-53
2021/01/22 13:32:47;;;;;;;20.48;13.43;;;;;;;6.26;70.11;100653.64;1739541;81;21785;-54
2021/01/22 13:35:54;;;;;;;17.60;11.65;;;;;;;6.23;70.19;100656.16;1735039;82;21260;-54
2021/01/22 13:38:59;;;;;;;17.50;12.88;;;;;;;6.24;70.19;100650.20;1734174;82;21904;-55
2021/01/22 13:42:06;;;;;;;20.23;15.32;;;;;;;6.25;70.21;100658.73;1734736;82;21220;-56
2021/01/22 13:45:14;;;;;;;19.00;15.32;;;;;;;6.26;70.23;100662.66;1734684;82;21276;-54
2021/01/22 13:48:21;;;;;;;19.87;15.18;;;;;;;6.22;70.21;100649.47;1743977;81;21386;-54
2021/01/22 13:51:27;;;;;;;18.82;13.25;;;;;;;6.20;70.26;100646.89;1765432;81;21721;-54
2021/01/22 13:54:33;;;;;;;22.02;14.23;;;;;;;6.22;70.29;100649.47;1748728;81;21880;-54
2021/01/22 13:57:41;;;;;;;20.37;14.30;;;;;;;6.21;70.22;100646.41;1763604;81;21208;-53
2021/01/22 15:39:51;;;;;;;61.23;38.42;;;;;;;4.60;75.27;100624.73;1745326;77;21267;-63
2021/01/22 15:42:58;;;;;;;149.10;93.87;;;;;;;4.61;75.25;100621.02;1681733;85;21232;-63
2021/01/22 15:46:04;;;;;;;90.72;56.95;;;;;;;4.68;75.33;100621.88;1681366;84;21264;-64
2021/01/22 15:49:10;;;;;;;40.48;26.62;;;;;;;4.75;75.31;100617.62;1681290;84;21192;-65
2021/01/22 15:52:16;;;;;;;36.30;25.68;;;;;;;4.82;75.24;100610.68;1681209;85;21283;-65
2021/01/22 15:55:22;;;;;;;41.68;30.90;;;;;;;4.89;75.05;100617.27;1680111;84;21716;-65
2021/01/22 15:58:28;;;;;;;60.83;45.50;;;;;;;4.91;74.89;100608.52;1646695;87;21766;-64
2021/01/22 16:01:34;;;;;;;53.17;37.65;;;;;;;4.92;74.63;100606.15;1680790;84;21757;-64
2021/01/22 16:04:42;;;;;;;54.42;36.13;;;;;;;4.89;74.49;100604.58;1676705;84;21197;-64
2021/01/22 16:07:48;;;;;;;42.17;25.37;;;;;;;4.87;74.49;100607.08;1663351;84;21232;-64
2021/01/22 16:10:54;;;;;;;37.75;23.65;;;;;;;4.87;74.48;100612.50;1654361;86;21391;-64
2021/01/22 16:14:00;;;;;;;34.25;24.25;;;;;;;4.84;74.51;100614.97;1654905;86;21300;-64
2021/01/22 16:17:10;;;;;;;47.83;27.75;;;;;;;4.82;74.57;100616.11;1670125;84;21239;-62
2021/01/22 16:20:17;;;;;;;48.95;30.35;;;;;;;4.80;74.58;100614.02;1653485;86;21253;-63
2021/01/22 16:23:22;;;;;;;50.35;30.45;;;;;;;4.75;74.75;100618.97;1679201;84;21279;-62
2021/01/22 16:26:27;;;;;;;40.52;25.00;;;;;;;4.75;74.99;100615.78;1679163;85;21220;-63
2021/01/22 16:29:33;;;;;;;37.23;25.32;;;;;;;4.75;75.20;100614.91;1659188;85;21893;-63
2021/01/22 16:32:38;;;;;;;33.15;21.70;;;;;;;4.73;75.43;100623.17;1646413;87;21229;-63
2021/01/22 16:35:43;;;;;;;29.48;21.15;;;;;;;4.71;75.71;100617.53;1681455;83;21235;-63
2021/01/22 16:38:50;;;;;;;36.65;22.70;;;;;;;4.68;75.91;100626.77;1679017;83;21221;-63
2021/01/22 16:41:56;;;;;;;46.33;26.77;;;;;;;4.63;76.15;100620.40;1654972;83;21242;-63
2021/01/22 16:45:03;;;;;;;62.27;34.15;;;;;;;4.63;76.31;100618.70;1661655;86;21395;-63
2021/01/22 16:48:08;;;;;;;71.92;36.05;;;;;;;4.66;76.48;100623.84;1685944;85;21255;-63
2021/01/22 16:51:16;;;;;;;64.90;34.08;;;;;;;4.68;76.49;100624.06;1691055;83;21863;-63
2021/01/22 16:54:22;;;;;;;63.13;34.00;;;;;;;4.69;76.48;100624.94;1653842;85;21215;-63
2021/01/22 16:57:27;;;;;;;51.98;30.80;;;;;;;4.69;76.57;100618.16;1724931;83;21397;-62
2021/01/22 17:00:33;;;;;;;46.55;28.90;;;;;;;4.69;76.67;100616.31;1725764;82;21405;-63
2021/01/22 17:03:39;;;;;;;47.17;28.75;;;;;;;4.72;76.70;100612.46;1725334;82;21216;-63
2021/01/22 17:06:45;;;;;;;43.38;26.10;;;;;;;4.71;76.59;100611.59;1726516;82;21366;-62
2021/01/22 17:09:55;;;;;;;40.43;24.65;;;;;;;4.71;76.67;100617.53;1727083;82;21216;-63
2021/01/22 17:13:00;;;;;;;38.67;22.90;;;;;;;4.70;76.63;100617.16;1696094;84;21247;-63
2021/01/22 17:16:06;;;;;;;35.75;23.32;;;;;;;4.63;76.64;100613.27;1695081;83;21302;-63
2021/01/22 17:19:13;;;;;;;35.50;23.75;;;;;;;4.59;76.79;100619.45;1695607;83;21753;-63
2021/01/22 17:22:18;;;;;;;37.98;24.00;;;;;;;4.55;76.93;100620.20;1657728;86;21228;-64
2021/01/22 17:25:23;;;;;;;39.70;24.95;;;;;;;4.54;77.13;100616.27;1663362;86;21516;-64
2021/01/22 17:28:31;;;;;;;43.00;24.70;;;;;;;4.53;77.26;100619.46;1663372;86;21243;-63
2021/01/22 17:31:36;;;;;;;44.95;25.32;;;;;;;4.48;77.47;100608.19;1692767;84;21284;-63
2021/01/22 17:34:53;;;;;;;43.80;24.55;;;;;;;4.44;77.79;100613.97;1676941;84;21233;-64
2021/01/22 17:37:56;;;;;;;46.68;24.70;;;;;;;4.38;78.05;100607.24;1705221;84;21330;-63
2021/01/22 17:41:02;;;;;;;41.70;26.55;;;;;;;4.39;78.25;100612.17;1705553;83;21253;-62
2021/01/22 17:44:08;;;;;;;45.30;26.82;;;;;;;4.39;78.50;100600.82;1697738;83;21278;-62
2021/01/22 17:47:14;;;;;;;43.90;26.37;;;;;;;4.45;78.74;100596.73;1696172;84;21245;-63
2021/01/22 17:50:26;;;;;;;45.30;26.42;;;;;;;4.51;78.87;100599.78;1695948;83;21270;-64
2021/01/22 17:53:29;;;;;;;42.38;25.37;;;;;;;4.52;78.93;100600.14;1696086;84;21759;-63
2021/01/22 17:56:35;;;;;;;46.30;27.87;;;;;;;4.50;78.95;100603.47;1682652;84;21324;-64
2021/01/22 17:59:41;;;;;;;49.40;28.35;;;;;;;4.44;79.14;100602.64;1687921;83;21219;-63
2021/01/22 18:02:48;;;;;;;49.93;28.77;;;;;;;4.42;79.40;100607.33;1689336;84;21276;-64
2021/01/22 18:05:55;;;;;;;51.95;30.02;;;;;;;4.44;79.51;100612.61;1656134;86;21371;-64
2021/01/22 18:09:01;;;;;;;52.08;30.90;;;;;;;4.46;79.68;100613.35;1673887;85;21335;-63
2021/01/22 18:12:07;;;;;;;51.90;29.65;;;;;;;4.46;79.85;100615.58;1696002;83;21229;-64
2021/01/22 18:15:15;;;;;;;53.70;30.43;;;;;;;4.50;79.99;100610.77;1695469;84;21379;-63
2021/01/22 18:18:22;;;;;;;50.35;30.20;;;;;;;4.45;80.03;100603.03;1695104;84;21224;-64
2021/01/22 18:21:30;;;;;;;49.58;28.65;;;;;;;4.46;80.21;100601.16;1685791;84;21292;-64
2021/01/22 18:24:35;;;;;;;47.55;28.12;;;;;;;4.45;80.24;100597.61;1675267;83;21236;-64
2021/01/22 18:27:40;;;;;;;55.50;29.65;;;;;;;4.48;80.35;100607.31;1679464;85;22125;-64
2021/01/22 18:30:47;;;;;;;50.05;29.32;;;;;;;4.50;80.40;100617.02;1681307;84;21228;-63
2021/01/22 18:33:55;;;;;;;57.35;30.57;;;;;;;4.54;80.43;100602.23;1684010;85;21297;-64
2021/01/22 18:37:03;;;;;;;48.78;27.85;;;;;;;4.56;80.49;100607.03;1678044;83;21272;-64
2021/01/22 18:40:08;;;;;;;49.58;28.17;;;;;;;4.61;80.59;100603.39;1680040;84;21274;-64
2021/01/22 18:43:14;;;;;;;48.80;28.60;;;;;;;4.67;80.62;100607.45;1679054;83;21778;-64
2021/01/22 18:46:20;;;;;;;49.00;28.70;;;;;;;4.71;80.67;100608.05;1649527;86;21407;-64
2021/01/22 18:49:27;;;;;;;47.95;26.25;;;;;;;4.75;80.74;100607.64;1674273;84;21738;-63
2021/01/22 18:52:35;;;;;;;45.58;26.02;;;;;;;4.83;80.75;100593.41;1680781;85;21272;-63
2021/01/22 18:55:42;;;;;;;47.08;27.27;;;;;;;4.85;80.64;100596.36;1651112;85;21268;-63
2021/01/22 18:58:47;;;;;;;41.18;23.52;;;;;;;4.88;80.57;100592.52;1680763;85;21808;-62
2021/01/22 19:01:52;;;;;;;46.85;26.45;;;;;;;4.93;80.57;100604.66;1680688;85;21211;-63
2021/01/22 19:05:03;;;;;;;48.28;28.40;;;;;;;4.99;80.58;100610.05;1651694;85;21259;-64
2021/01/22 19:08:09;;;;;;;46.28;26.10;;;;;;;5.06;80.53;100608.02;1660005;85;21209;-63
2021/01/22 19:11:15;;;;;;;53.52;28.25;;;;;;;5.18;80.46;100608.80;1679999;84;21243;-63
2021/01/22 19:14:21;;;;;;;44.73;25.77;;;;;;;5.27;80.25;100604.77;1679652;84;21230;-64
2021/01/22 19:17:27;;;;;;;50.25;27.30;;;;;;;5.29;79.85;100596.48;1679516;85;21751;-64
2021/01/22 19:20:33;;;;;;;46.90;26.55;;;;;;;5.24;79.67;100601.45;1650517;86;21844;-63
2021/01/22 19:23:42;;;;;;;46.70;25.82;;;;;;;5.26;79.73;100608.48;1680127;85;21691;-65
2021/01/22 19:26:47;;;;;;;47.90;26.00;;;;;;;5.30;79.78;100600.41;1680170;85;21747;-64
2021/01/22 19:29:54;;;;;;;48.87;28.20;;;;;;;5.33;79.56;100596.06;1651676;86;21206;-64
2021/01/22 19:32:59;;;;;;;46.68;26.82;;;;;;;5.36;79.35;100606.64;1679886;85;21344;-64
2021/01/22 19:36:09;;;;;;;49.98;28.23;;;;;;;5.38;79.10;100607.86;1680261;85;21230;-63
2021/01/22 19:39:14;;;;;;;46.13;28.17;;;;;;;5.35;79.03;100611.72;1680255;85;21223;-64
2021/01/22 19:42:22;;;;;;;44.25;24.77;;;;;;;5.33;78.95;100620.49;1680193;85;21570;-64
2021/01/22 19:45:28;;;;;;;43.33;25.70;;;;;;;5.36;78.92;100616.67;1679412;83;21426;-63
2021/01/22 19:48:37;;;;;;;46.08;28.07;;;;;;;5.35;78.72;100617.64;1652208;87;21225;-63
2021/01/22 19:51:46;;;;;;;57.67;32.53;;;;;;;5.35;78.86;100613.57;1617579;88;21536;-64
2021/01/22 19:54:50;;;;;;;48.40;28.32;;;;;;;5.29;78.54;100608.20;1652608;87;21498;-64
2021/01/22 19:57:59;;;;;;;46.75;28.42;;;;;;;5.25;78.82;100608.62;1672700;85;21320;-64
2021/01/22 20:01:08;;;;;;;42.23;27.45;;;;;;;5.29;78.83;100611.41;1645728;86;21415;-65
2021/01/22 20:04:14;;;;;;;44.65;25.97;;;;;;;5.33;78.78;100611.48;1654292;86;21616;-64
2021/01/22 20:07:22;;;;;;;44.38;27.25;;;;;;;5.36;78.60;100608.52;1645138;85;21225;-63
2021/01/22 20:10:28;;;;;;;50.30;27.87;;;;;;;5.31;78.33;100614.33;1638321;85;21245;-63
2021/01/22 20:13:34;;;;;;;47.80;28.07;;;;;;;5.19;78.31;100611.38;1652876;86;21212;-63
2021/01/22 20:16:39;;;;;;;43.58;26.95;;;;;;;5.08;78.52;100620.09;1676425;85;21219;-64
2021/01/22 20:19:46;;;;;;;40.40;25.15;;;;;;;5.09;78.86;100620.47;1676958;85;21280;-64
2021/01/22 20:22:52;;;;;;;51.85;29.45;;;;;;;5.15;78.98;100624.86;1644515;86;21252;-64
2021/01/22 20:25:57;;;;;;;46.13;27.05;;;;;;;5.21;78.96;100624.80;1652270;86;21742;-64
2021/01/22 20:29:03;;;;;;;43.75;27.75;;;;;;;5.26;78.85;100623.90;1628432;87;21230;-64
2021/01/22 20:32:09;;;;;;;49.90;28.90;;;;;;;5.24;78.73;100628.11;1675531;85;21212;-64
2021/01/22 20:35:15;;;;;;;48.70;27.35;;;;;;;5.23;78.69;100619.58;1652510;86;21222;-65
2021/01/22 20:38:22;;;;;;;46.05;29.60;;;;;;;5.28;78.69;100621.91;1626297;87;21301;-64
2021/01/22 20:41:27;;;;;;;51.55;31.02;;;;;;;5.36;78.71;100632.95;1675363;85;21232;-63
2021/01/22 20:44:34;;;;;;;48.73;29.32;;;;;;;5.44;78.61;100637.20;1652925;86;21352;-63
2021/01/22 20:47:40;;;;;;;48.23;29.15;;;;;;;5.49;78.30;100625.41;1674603;81;21672;-63
2021/01/22 20:50:46;;;;;;;47.65;28.73;;;;;;;5.44;77.99;100624.98;1684089;85;21367;-65
2021/01/22 20:53:51;;;;;;;47.80;26.80;;;;;;;5.37;77.94;100638.73;1684416;85;21246;-64
2021/01/22 20:56:57;;;;;;;47.05;29.75;;;;;;;5.35;78.08;100643.42;1678037;85;21261;-64
2021/01/22 21:00:06;;;;;;;46.05;29.05;;;;;;;5.36;78.17;100656.02;1683719;85;21230;-63
2021/01/22 21:03:10;;;;;;;47.20;27.62;;;;;;;5.42;78.28;100648.69;1684725;85;21293;-64